Terminal Aerodrome Forecast
Issued by NWS

Current Version | Previous Version | Graphics & Text | Print | Product List | Glossary On
Versions: 1 2 3 4 5 6 7 8 9 10 11 12 13 14 15 16 17
000
FTUS41 KRNK 240216 AAA
TAFLWB
TAF AMD
KLWB 240216Z 2402/2424 03003KT P6SM -RA BKN015 OVC025
      TEMPO 2402/2405 SCT015 OVC025
     FM240800 07008KT 4SM -RA OVC020
     FM241400 08009KT 4SM -SHRA OVC008
     FM241800 09008KT P6SM VCSH OVC010=

USA.gov is the U.S. government's official web portal to all federal, state and local government web resources and services.